M I D A S
Marine Information and Data Acquisition System
Tripno 1665 of the Zeeleeuw from 2009-03-26 07:33:00 to 2009-03-26 15:56:00
Back to CruiseResearch ActivitiesStationsMapUnderway DataData graphs

EquipmentUnitsComment
TimeDGPSUTC
LatitudeDGPSDM.mWGS84
LongitudeDGPSDM.mWGS84
HeadingGyrodeg 
SOGDGPSknotsSpeed over ground
COGDGPSdegCourse over ground
DepthEcho soundermeters200 kHz
Missing or incorrect values are displayed as -999
Navigation data collected by the RV Zeeleeuw from 2009-03-26 07:33:22 to 2009-03-26 15:56:01
Time Latitude Longitude Heading SOG COG Depth
2009-03-26 07:34:27 51°13.683 2°55.892 110 3.2 292 -999
2009-03-26 07:35:27 51°13.697 2°55.81 90.5 2.9 278 -999
2009-03-26 07:36:27 51°13.7 2°55.764 58.9 0.5 337 10.9
2009-03-26 07:37:27 51°13.705 2°55.757 22.4 0.6 244 -999
2009-03-26 07:38:26 51°13.712 2°55.744 344.9 1.9 331 10.4
2009-03-26 07:39:26 51°13.788 2°55.67 331.9 7.1 331 9
2009-03-26 07:40:23 51°13.899 2°55.582 335.5 8.4 334 9.4
2009-03-26 07:41:22 51°14.029 2°55.487 336.9 8.9 335 9.5
2009-03-26 07:42:25 51°14.17 2°55.377 332.9 8.9 329 10.1
2009-03-26 07:43:25 51°14.284 2°55.227 315.7 8.9 314 9.9
2009-03-26 07:44:23 51°14.38 2°55.055 310.1 9.1 309 9.7
2009-03-26 07:45:23 51°14.482 2°54.868 321 9.7 315 9.4
2009-03-26 07:46:23 51°14.592 2°54.665 314.9 10.5 309 8.8
2009-03-26 07:47:23 51°14.705 2°54.443 314.4 11.1 309 8.9
2009-03-26 07:48:23 51°14.825 2°54.197 314.1 12.1 307 8.7
2009-03-26 07:49:23 51°14.942 2°53.935 313.7 12.1 308 8.5
2009-03-26 07:50:23 51°15.065 2°53.678 315.1 12.2 307 8.7
2009-03-26 07:51:23 51°15.189 2°53.421 315.4 12.2 308 8.8
2009-03-26 07:52:23 51°15.314 2°53.165 316 12.2 308 9.3
2009-03-26 07:53:23 51°15.443 2°52.911 317.3 12.3 310 9.9
2009-03-26 07:54:23 51°15.576 2°52.663 318.4 12.4 311 10.3
2009-03-26 07:55:23 51°15.709 2°52.411 317.8 12.5 309 10.9
2009-03-26 07:56:23 51°15.84 2°52.158 317 12.3 310 11.2
2009-03-26 07:57:23 51°15.972 2°51.909 316.6 12.2 310 11.5
2009-03-26 07:58:23 51°16.105 2°51.667 319.5 12.1 314 11.6
2009-03-26 07:59:23 51°16.24 2°51.433 319.4 11.9 313 10.5
2009-03-26 08:00:23 51°16.375 2°51.206 323.9 11.7 318 11
2009-03-26 08:01:23 51°16.543 2°51.084 354.3 11 351 10.2
2009-03-26 08:02:23 51°16.693 2°51.086 10.3 7.6 4 9.3
2009-03-26 08:03:23 51°16.804 2°51.1 6.5 4.8 358 10.1
2009-03-26 08:04:23 51°16.859 2°51.09 1.5 2.5 349 9.8
2009-03-26 08:05:23 51°16.879 2°51.067 331.6 1.2 294 9.7
2009-03-26 08:06:23 51°16.881 2°51.044 319.5 0.8 258 9.6
2009-03-26 08:07:23 51°16.877 2°51.028 313.6 0.5 231 9.6
2009-03-26 08:08:23 51°16.871 2°51.017 311 0.4 224 9.7
2009-03-26 08:09:23 51°16.864 2°51.011 311.7 0.5 202 9.5
2009-03-26 08:10:23 51°16.856 2°51.007 315.1 0.5 194 9.6
2009-03-26 08:11:23 51°16.848 2°51.005 319.4 0.5 191 9.5
2009-03-26 08:12:23 51°16.838 2°51.005 325.2 0.6 177 9.6
2009-03-26 08:13:23 51°16.828 2°51.005 329.3 0.7 174 9.5
2009-03-26 08:14:23 51°16.817 2°51.006 332.9 0.6 180 9.6
2009-03-26 08:15:23 51°16.807 2°51.006 333.5 0.6 179 9.6
2009-03-26 08:16:23 51°16.797 2°51.006 333.1 0.6 186 9.6
2009-03-26 08:17:23 51°16.788 2°51.004 331.8 0.3 201 9.6
2009-03-26 08:18:23 51°16.784 2°50.996 329.7 0.5 262 9.6
2009-03-26 08:19:23 51°16.785 2°50.981 330.5 0.6 272 9.4
2009-03-26 08:20:23 51°16.788 2°50.962 329.8 0.9 284 9.5
2009-03-26 08:21:23 51°16.795 2°50.939 336.4 1.3 314 9.4
2009-03-26 08:22:23 51°16.819 2°50.926 12.5 1.8 7 9.3
2009-03-26 08:23:23 51°16.84 2°50.96 60.1 2.3 71 9.5
2009-03-26 08:24:23 51°16.847 2°51.051 79.6 5.3 88 10.1
2009-03-26 08:25:23 51°16.871 2°51.164 39.5 3 43 9.9
2009-03-26 08:26:23 51°16.905 2°51.165 349.6 1.5 330 9.6
2009-03-26 08:27:24 51°16.912 2°51.146 325.1 0.6 269 9.6
2009-03-26 08:28:23 51°16.907 2°51.135 311.4 0.5 218 9.8
2009-03-26 08:29:23 51°16.899 2°51.133 311 0.6 168 9.8
2009-03-26 08:30:23 51°16.889 2°51.138 320.5 0.8 167 9.9
2009-03-26 08:31:23 51°16.875 2°51.145 332 0.9 159 10
2009-03-26 08:32:23 51°16.86 2°51.151 343.4 1 166 10.2
2009-03-26 08:33:23 51°16.844 2°51.156 350.1 1 161 10.3
2009-03-26 08:34:23 51°16.829 2°51.162 352.3 0.9 165 10.3
2009-03-26 08:35:23 51°16.814 2°51.168 350.1 0.9 168 10.4
2009-03-26 08:36:23 51°16.807 2°51.171 350.7 0.1 343 10.4
2009-03-26 08:37:23 51°16.817 2°51.165 358.3 1.5 356 10.4
2009-03-26 08:38:23 51°16.844 2°51.201 64.7 2.7 79 10
2009-03-26 08:39:23 51°16.824 2°51.264 122.7 2.7 139 9.7
2009-03-26 08:40:23 51°16.783 2°51.31 138.7 3.2 152 10
2009-03-26 08:41:23 51°16.734 2°51.348 147.8 3.1 157 10
2009-03-26 08:42:23 51°16.685 2°51.375 156.2 3.1 164 10.3
2009-03-26 08:43:24 51°16.633 2°51.395 164.1 3.2 168 10.8
2009-03-26 08:44:23 51°16.581 2°51.41 169.3 3.3 173 11.1
2009-03-26 08:45:23 51°16.528 2°51.416 182.2 3.2 182 11.4
2009-03-26 08:46:23 51°16.478 2°51.402 203.2 3.1 198 9.7
2009-03-26 08:47:23 51°16.431 2°51.364 214.8 3.3 211 9.9
2009-03-26 08:48:23 51°16.378 2°51.329 201.2 3.5 199 11.8
2009-03-26 08:49:23 51°16.327 2°51.295 215.5 3.2 210 11.4
2009-03-26 08:50:24 51°16.286 2°51.238 239.8 3.2 229 10
2009-03-26 08:51:23 51°16.262 2°51.166 255.2 3.1 245 10.8
2009-03-26 08:52:23 51°16.239 2°51.093 246.4 3.1 239 11
2009-03-26 08:53:23 51°16.207 2°51.026 234.5 3.3 230 11
2009-03-26 08:54:23 51°16.168 2°50.965 230.3 3.2 222 10.8
2009-03-26 08:55:23 51°16.132 2°50.906 238.2 2.9 228 10.9
2009-03-26 08:56:24 51°16.102 2°50.84 245.9 3 239 11.1
2009-03-26 08:57:23 51°16.08 2°50.769 255.1 3.1 248 11.3
2009-03-26 08:58:23 51°16.066 2°50.691 261.8 3 255 11.1
2009-03-26 08:59:24 51°16.055 2°50.618 268.2 2.7 264 10.9
2009-03-26 09:00:23 51°16.058 2°50.548 286.5 2.7 284 10.4
2009-03-26 09:01:24 51°16.072 2°50.481 295.6 2.2 293 10.1
2009-03-26 09:02:23 51°16.082 2°50.44 296.6 1.4 293 9.9
2009-03-26 09:03:23 51°16.089 2°50.413 300.7 0.9 299 9.9
2009-03-26 09:04:23 51°16.097 2°50.395 311.3 1 312 9.9
2009-03-26 09:05:23 51°16.112 2°50.376 329 1.5 327 9.9
2009-03-26 09:06:23 51°16.146 2°50.366 8.3 2.4 13 9.8
2009-03-26 09:07:23 51°16.179 2°50.434 66.2 6.5 70 9.6
2009-03-26 09:08:23 51°16.265 2°50.652 53.1 11 52 9.9
2009-03-26 09:09:23 51°16.386 2°50.873 46.6 11.2 51 10.6
2009-03-26 09:10:24 51°16.51 2°51.099 48 11.3 51 11.8
2009-03-26 09:11:23 51°16.63 2°51.315 48.9 11.3 49 11.5
2009-03-26 09:12:23 51°16.751 2°51.542 48.6 11.2 47 11.1
2009-03-26 09:13:23 51°16.87 2°51.77 49.4 11.1 46 11
2009-03-26 09:14:23 51°16.989 2°51.996 49.4 11.3 48 10.4
2009-03-26 09:15:23 51°17.108 2°52.22 51 11.1 52 10.3
2009-03-26 09:16:22 51°17.225 2°52.438 48.5 10.9 49 9.9
2009-03-26 09:17:23 51°17.344 2°52.665 50.5 11 50 9.8
2009-03-26 09:18:23 51°17.462 2°52.888 49.6 11 52 9.9
2009-03-26 09:19:24 51°17.581 2°53.116 48.4 10.8 50 9.7
2009-03-26 09:20:23 51°17.697 2°53.333 49.4 11 45 9.7
2009-03-26 09:21:24 51°17.816 2°53.557 49.4 10.8 52 9.9
2009-03-26 09:22:23 51°17.93 2°53.774 49.7 10.7 52 9.9
2009-03-26 09:23:24 51°18.044 2°53.999 51.3 10.9 56 9.8
2009-03-26 09:24:24 51°18.158 2°54.219 55.6 10.8 56 10
2009-03-26 09:25:24 51°18.211 2°54.492 76.8 10.8 81 10
2009-03-26 09:26:24 51°18.249 2°54.777 75.2 11 77 9.8
2009-03-26 09:27:24 51°18.29 2°55.058 74 10.9 78 9.6
2009-03-26 09:28:24 51°18.33 2°55.336 75.7 10.7 77 9.5
2009-03-26 09:29:24 51°18.383 2°55.612 68.7 10.8 70 9.4
2009-03-26 09:30:24 51°18.446 2°55.879 67.1 10.7 67 9.3
2009-03-26 09:31:24 51°18.507 2°56.148 67.7 10.8 66 9.1
2009-03-26 09:32:24 51°18.588 2°56.403 60.2 10.8 59 9
2009-03-26 09:33:24 51°18.678 2°56.653 60.1 10.9 65 8.9
2009-03-26 09:34:24 51°18.766 2°56.906 61.7 11.2 59 9.2
2009-03-26 09:35:24 51°18.854 2°57.168 61.8 11.2 64 8.8
2009-03-26 09:36:24 51°18.945 2°57.418 56.9 10.8 55 8.8
2009-03-26 09:37:24 51°19.043 2°57.656 55.8 10.6 57 8.7
2009-03-26 09:38:24 51°19.164 2°57.86 43.7 10.5 41 8.9
2009-03-26 09:39:24 51°19.301 2°58.039 39.9 10.6 37 9.3
2009-03-26 09:40:24 51°19.431 2°58.237 45.4 10.9 45 9.4
2009-03-26 09:41:24 51°19.557 2°58.443 46.5 10.9 47 9.1
2009-03-26 09:42:24 51°19.687 2°58.65 45.2 11 44 9.3
2009-03-26 09:43:24 51°19.815 2°58.858 45.8 10.9 47 9.5
2009-03-26 09:44:24 51°19.942 2°59.066 45.4 10.9 44 9.8
2009-03-26 09:45:24 51°20.071 2°59.282 48.8 11.3 46 9.8
2009-03-26 09:46:24 51°20.201 2°59.498 46.2 11.2 40 9.9
2009-03-26 09:47:24 51°20.332 2°59.711 44.1 11.2 42 10.2
2009-03-26 09:48:24 51°20.464 2°59.926 47.1 11.6 43 10.4
2009-03-26 09:49:24 51°20.598 3°0.146 46.8 11.6 43 10.7
2009-03-26 09:50:24 51°20.73 3°0.366 46.6 11.4 43 10.9
2009-03-26 09:51:24 51°20.861 3°0.588 46.9 11.5 46 10.9
2009-03-26 09:52:24 51°20.993 3°0.809 46.4 11.5 42 11.1
2009-03-26 09:53:24 51°21.128 3°1.026 45.1 11.6 49 11.3
2009-03-26 09:54:24 51°21.263 3°1.244 45.7 11.5 42 11.2
2009-03-26 09:55:24 51°21.396 3°1.468 46.5 11.5 47 11.3
2009-03-26 09:56:24 51°21.531 3°1.694 46.2 11.8 48 11.3
2009-03-26 09:57:24 51°21.663 3°1.917 47.5 11.5 50 11.8
2009-03-26 09:58:24 51°21.799 3°2.138 44.5 11.7 51 11.8
2009-03-26 09:59:24 51°21.936 3°2.359 45.8 11.9 43 11.7
2009-03-26 10:00:24 51°22.075 3°2.582 45.4 11.7 44 11.7
2009-03-26 10:01:24 51°22.209 3°2.813 48.2 12 47 11.9
2009-03-26 10:02:24 51°22.346 3°3.04 44.4 11.7 45 11.7
2009-03-26 10:03:24 51°22.481 3°3.272 46.9 11.8 46 11.1
2009-03-26 10:04:24 51°22.613 3°3.505 44.4 11.7 52 11.8
2009-03-26 10:05:24 51°22.747 3°3.743 48 12.3 52 11
2009-03-26 10:06:24 51°22.881 3°3.983 46.3 12 51 9.2
2009-03-26 10:07:24 51°23.016 3°4.219 44.7 11.8 45 12.5
2009-03-26 10:08:24 51°23.151 3°4.456 45.2 12.1 47 12.3
2009-03-26 10:09:24 51°23.284 3°4.701 46.5 12.4 51 12.6
2009-03-26 10:10:24 51°23.417 3°4.946 46.6 12.2 47 12.8
2009-03-26 10:11:24 51°23.55 3°5.188 45.6 12 43 13.1
2009-03-26 10:12:24 51°23.682 3°5.436 44.7 12.2 47 13.7
2009-03-26 10:13:24 51°23.817 3°5.682 45.7 12.1 48 15.5
2009-03-26 10:14:24 51°23.954 3°5.927 45.6 12.4 45 20
2009-03-26 10:15:24 51°24.093 3°6.175 46.6 12.4 45 19.5
2009-03-26 10:16:24 51°24.225 3°6.429 48.1 12.4 54 16
2009-03-26 10:17:24 51°24.354 3°6.675 48.1 12.1 52 13.1
2009-03-26 10:18:24 51°24.487 3°6.914 41.3 11.8 47 12.3
2009-03-26 10:19:24 51°24.632 3°7.12 35.9 11.8 39 12
2009-03-26 10:20:24 51°24.783 3°7.315 34.4 11.8 38 11.3
2009-03-26 10:21:24 51°24.945 3°7.475 24.2 11.5 30 10.2
2009-03-26 10:22:24 51°25.113 3°7.598 22.3 11.1 20 9.1
2009-03-26 10:23:24 51°25.284 3°7.71 16.7 11.4 28 9.1
2009-03-26 10:24:24 51°25.458 3°7.819 18 11.1 15 9.3
2009-03-26 10:25:24 51°25.631 3°7.932 18.3 11.2 20 9.6
2009-03-26 10:26:24 51°25.804 3°8.041 16.8 11.2 25 9.7
2009-03-26 10:27:24 51°25.977 3°8.156 19.1 11.2 23 9.9
2009-03-26 10:28:24 51°26.149 3°8.262 18.2 11 22 10.1
2009-03-26 10:29:24 51°26.308 3°8.264 343.3 8 346 10.4
2009-03-26 10:30:24 51°26.414 3°8.212 336.4 4.5 344 10.8
2009-03-26 10:31:24 51°26.445 3°8.203 315.5 0.7 22 10.8
2009-03-26 10:32:24 51°26.448 3°8.227 319.3 1.1 93 11.4
2009-03-26 10:33:24 51°26.446 3°8.264 325.9 1.4 92 10.9
2009-03-26 10:34:24 51°26.441 3°8.304 335 1.6 103 11
2009-03-26 10:35:24 51°26.434 3°8.347 341 1.5 108 11.6
2009-03-26 10:36:24 51°26.429 3°8.391 346.3 1.6 99 11.1
2009-03-26 10:37:24 51°26.425 3°8.432 339.2 1.7 93 11.3
2009-03-26 10:38:24 51°26.429 3°8.466 332.9 1.1 43 11.5
2009-03-26 10:39:24 51°26.45 3°8.476 320.3 1.5 6 10.9
2009-03-26 10:40:24 51°26.469 3°8.483 314.3 1.1 15 12.4
2009-03-26 10:41:24 51°26.483 3°8.496 313.3 0.9 19 11.8
2009-03-26 10:42:24 51°26.497 3°8.505 313 1.1 41 11.5
2009-03-26 10:43:24 51°26.502 3°8.538 313.1 1.6 75 11.1
2009-03-26 10:44:24 51°26.502 3°8.58 321.5 1.6 94 12.2
2009-03-26 10:45:24 51°26.501 3°8.627 330.3 2 90 11.5
2009-03-26 10:46:24 51°26.497 3°8.68 341.2 2 100 11.4
2009-03-26 10:47:24 51°26.492 3°8.731 348 1.7 106 11.5
2009-03-26 10:48:24 51°26.488 3°8.781 342.3 1.9 95 11.7
2009-03-26 10:49:24 51°26.486 3°8.832 339.9 2.1 93 11.7
2009-03-26 10:50:24 51°26.486 3°8.884 343.4 1.8 95 11.9
2009-03-26 10:51:24 51°26.486 3°8.935 334.7 2 89 11.4
2009-03-26 10:52:24 51°26.484 3°8.988 337.6 2 94 11.6
2009-03-26 10:53:24 51°26.483 3°9.042 336.1 2.2 88 11.9
2009-03-26 10:54:24 51°26.485 3°9.095 335.7 1.8 64 11.6
2009-03-26 10:55:23 51°26.522 3°9.141 18.3 4.2 47 11.8
2009-03-26 10:56:24 51°26.543 3°9.257 91.2 4.3 96 12.1
2009-03-26 10:57:24 51°26.528 3°9.357 124.5 3.4 110 11.8
2009-03-26 10:58:23 51°26.505 3°9.448 140.9 3.8 116 10.9
2009-03-26 10:59:24 51°26.469 3°9.542 146 4.1 125 11.7
2009-03-26 11:00:24 51°26.431 3°9.632 151.8 4.1 125 11.3
2009-03-26 11:01:24 51°26.395 3°9.721 145.4 3.8 118 11.2
2009-03-26 11:02:24 51°26.366 3°9.813 138.7 4 118 10.4
2009-03-26 11:03:23 51°26.338 3°9.903 141.8 3.7 118 11
2009-03-26 11:04:24 51°26.308 3°9.995 143.7 3.8 118 10.7
2009-03-26 11:05:24 51°26.279 3°10.084 147 3.9 118 10.3
2009-03-26 11:06:24 51°26.248 3°10.171 153.6 3.7 120 10
2009-03-26 11:07:24 51°26.216 3°10.254 155.2 3.7 125 9.9
2009-03-26 11:08:24 51°26.182 3°10.334 159.2 3.5 124 9.7
2009-03-26 11:09:24 51°26.152 3°10.417 155.1 3.8 117 10.2
2009-03-26 11:10:23 51°26.12 3°10.497 158.6 3.8 117 9.7
2009-03-26 11:11:24 51°26.088 3°10.579 159.7 3.5 125 10.4
2009-03-26 11:12:24 51°26.056 3°10.655 162.4 3.5 123 9.8
2009-03-26 11:13:24 51°26.025 3°10.735 153.6 3.6 123 9.6
2009-03-26 11:14:23 51°25.995 3°10.818 151.8 3.5 120 9.6
2009-03-26 11:15:24 51°25.969 3°10.901 154.6 3.3 115 9.6
2009-03-26 11:16:24 51°25.947 3°10.98 159.2 3.3 112 10
2009-03-26 11:17:24 51°25.92 3°11.051 173.5 3.3 128 9.6
2009-03-26 11:18:24 51°25.88 3°11.113 186 3.5 142 10.2
2009-03-26 11:19:24 51°25.784 3°11.173 179.6 9.8 168 9.5
2009-03-26 11:20:26 51°25.602 3°11.239 175.6 11.4 163 10.4
2009-03-26 11:21:24 51°25.428 3°11.385 156.9 12.2 154 11.5
2009-03-26 11:22:24 51°25.254 3°11.568 153.8 12.8 144 12
2009-03-26 11:23:24 51°25.095 3°11.799 140.2 13.2 133 12.4
2009-03-26 11:24:24 51°24.957 3°12.076 135.4 13.5 125 13.9
2009-03-26 11:25:24 51°24.815 3°12.356 138.1 13.8 130 15.2
2009-03-26 11:26:23 51°24.679 3°12.638 137.1 14 122 16.8
2009-03-26 11:27:23 51°24.542 3°12.932 138.8 14 125 19.9
2009-03-26 11:28:23 51°24.405 3°13.232 138.2 14.3 124 20.8
2009-03-26 11:29:23 51°24.268 3°13.538 139.4 14.2 125 17.8
2009-03-26 11:30:24 51°24.138 3°13.863 134.1 14.4 120 15.2
2009-03-26 11:31:24 51°24.009 3°14.171 134.3 14.2 119 13.2
2009-03-26 11:32:24 51°23.882 3°14.481 134.1 14.3 124 13.7
2009-03-26 11:33:24 51°23.754 3°14.803 133.1 14 126 13.5
2009-03-26 11:34:24 51°23.626 3°15.122 131.4 14.6 120 12.5
2009-03-26 11:35:24 51°23.509 3°15.461 129.5 14.8 114 12
2009-03-26 11:36:23 51°23.406 3°15.806 118.6 15.1 108 11.8
2009-03-26 11:37:23 51°23.325 3°16.177 115.6 14.8 112 11.5
2009-03-26 11:38:23 51°23.248 3°16.548 117 14.5 111 11.3
2009-03-26 11:39:23 51°23.161 3°16.915 119.1 14.5 112 10.5
2009-03-26 11:40:24 51°23.073 3°17.281 117.4 14.3 115 9.9
2009-03-26 11:41:24 51°22.988 3°17.637 119.3 14.6 112 9.9
2009-03-26 11:42:24 51°22.908 3°17.978 119.1 13.1 108 9.5
2009-03-26 11:43:24 51°22.819 3°18.269 134.4 10.8 123 8.8
2009-03-26 11:44:24 51°22.739 3°18.443 148.9 6.6 126 8.7
2009-03-26 11:45:24 51°22.685 3°18.569 158.2 5.3 125 8.6
2009-03-26 11:46:23 51°22.639 3°18.67 161.9 4.8 122 7.9
2009-03-26 11:47:23 51°22.624 3°18.786 120.7 4.2 86 8.4
2009-03-26 11:48:23 51°22.631 3°18.915 85.9 5.5 77 8.5
2009-03-26 11:49:23 51°22.663 3°19.046 45.1 5 55 8.5
2009-03-26 11:50:24 51°22.711 3°19.143 10.6 3.7 55 8.8
2009-03-26 11:51:24 51°22.74 3°19.221 350.5 3.3 62 9.3
2009-03-26 11:52:24 51°22.762 3°19.293 336.1 2.9 67 9.2
2009-03-26 11:53:24 51°22.781 3°19.367 326.4 3.1 69 9.4
2009-03-26 11:54:24 51°22.798 3°19.45 326.1 3.3 76 9.4
2009-03-26 11:55:24 51°22.809 3°19.536 340.9 3.3 80 9.6
2009-03-26 11:56:23 51°22.819 3°19.619 356.5 2.8 80 9.9
2009-03-26 11:57:23 51°22.829 3°19.7 1.7 3.3 78 9.8
2009-03-26 11:58:23 51°22.842 3°19.781 4.5 3.1 72 9.8
2009-03-26 11:59:23 51°22.858 3°19.862 356.2 3.2 72 9.8
2009-03-26 12:00:24 51°22.874 3°19.941 348 3 73 10.3
2009-03-26 12:01:24 51°22.887 3°20.022 344.5 3.3 75 10.2
2009-03-26 12:02:24 51°22.901 3°20.107 346.1 3.2 77 10.7
2009-03-26 12:03:24 51°22.914 3°20.19 351.3 3.2 74 10.7
2009-03-26 12:04:24 51°22.928 3°20.272 351.7 3.3 74 10.5
2009-03-26 12:05:23 51°22.962 3°20.327 311.7 2.8 -999 10.9
2009-03-26 12:06:23 51°22.964 3°20.291 234.2 4 228 10.8
2009-03-26 12:07:23 51°22.934 3°20.161 251.2 6.1 255 10.6
2009-03-26 12:08:23 51°22.892 3°19.995 242 7.4 240 10.4
2009-03-26 12:09:24 51°22.843 3°19.809 245 7.7 243 10
2009-03-26 12:10:23 51°22.787 3°19.631 241.1 7.7 238 9.4
2009-03-26 12:11:24 51°22.733 3°19.442 255.9 7.8 258 9.2
2009-03-26 12:12:24 51°22.704 3°19.249 246.9 7.4 248 9.1
2009-03-26 12:13:24 51°22.691 3°19.052 265.7 7.4 269 8.8
2009-03-26 12:14:24 51°22.677 3°18.912 264.4 3.2 274 8.9
2009-03-26 12:15:23 51°22.696 3°18.868 279 1.3 339 9
2009-03-26 12:16:23 51°22.714 3°18.872 274.7 1.3 31 9
2009-03-26 12:17:23 51°22.732 3°18.891 277.3 1.3 36 9
2009-03-26 12:18:23 51°22.752 3°18.919 284.7 1.3 35 9.3
2009-03-26 12:19:24 51°22.77 3°18.938 270.7 1.1 27 9.2
2009-03-26 12:20:24 51°22.782 3°18.955 258.2 0.8 51 9.3
2009-03-26 12:21:24 51°22.795 3°18.969 273.8 1.3 32 9.3
2009-03-26 12:22:24 51°22.815 3°18.978 284.1 1.4 2 9.5
2009-03-26 12:23:24 51°22.839 3°18.978 286.1 1.4 357 9.4
2009-03-26 12:24:24 51°22.867 3°18.961 291 3.7 311 9.6
2009-03-26 12:25:24 51°22.901 3°18.798 272.5 8.5 275 9.4
2009-03-26 12:26:24 51°22.906 3°18.557 269.4 9.4 272 9.5
2009-03-26 12:27:24 51°22.909 3°18.306 269.8 9.7 272 9.7
2009-03-26 12:28:23 51°22.915 3°18.058 269.7 9.4 272 9.8
2009-03-26 12:29:23 51°22.92 3°17.808 269.4 9.2 271 10.3
2009-03-26 12:30:23 51°22.927 3°17.566 269.4 9.1 273 10.2
2009-03-26 12:31:23 51°22.932 3°17.325 269.2 9.2 272 10.1
2009-03-26 12:32:24 51°22.937 3°17.075 269.6 9.2 272 10.2
2009-03-26 12:33:24 51°22.941 3°16.841 269.2 8.7 272 10.3
2009-03-26 12:34:24 51°22.945 3°16.6 269.4 9.1 271 10.6
2009-03-26 12:35:24 51°22.95 3°16.36 269.5 9.1 272 10.8
2009-03-26 12:36:24 51°22.944 3°16.123 265 8.7 266 11
2009-03-26 12:37:23 51°22.937 3°15.889 266.9 9 268 11.2
2009-03-26 12:38:23 51°22.93 3°15.655 265.7 8.8 266 10.9
2009-03-26 12:39:23 51°22.923 3°15.423 266.6 8.7 268 10.3
2009-03-26 12:40:23 51°22.904 3°15.197 261.1 8.5 261 10.6
2009-03-26 12:41:23 51°22.879 3°14.973 260.4 8.6 260 11.7
2009-03-26 12:42:24 51°22.854 3°14.749 260.7 8.4 260 12.1
2009-03-26 12:43:24 51°22.83 3°14.521 261 8.8 261 12.5
2009-03-26 12:44:24 51°22.806 3°14.292 261 8.6 261 12.4
2009-03-26 12:45:24 51°22.784 3°14.07 261 8.4 261 12.8
2009-03-26 12:46:24 51°22.761 3°13.845 261.1 8.7 262 13
2009-03-26 12:47:23 51°22.74 3°13.632 261.3 8.6 261 13.5
2009-03-26 12:48:24 51°22.718 3°13.395 261.7 9 262 13.8
2009-03-26 12:49:24 51°22.697 3°13.16 261.1 8.9 262 14.3
2009-03-26 12:50:24 51°22.675 3°12.924 261.4 9 261 14.8
2009-03-26 12:51:24 51°22.653 3°12.69 261.8 9 263 15.5
2009-03-26 12:52:24 51°22.633 3°12.452 261.6 9.1 263 16.2
2009-03-26 12:53:24 51°22.608 3°12.221 256.3 8.7 254 16.2
2009-03-26 12:54:24 51°22.573 3°12.007 255 8.5 254 17.1
2009-03-26 12:55:24 51°22.541 3°11.807 255.7 5.4 256 17.5
2009-03-26 12:56:24 51°22.537 3°11.739 257.7 1.1 287 17.5
2009-03-26 12:57:24 51°22.547 3°11.74 257.5 0.8 30 17.5
2009-03-26 12:58:24 51°22.56 3°11.755 256.7 1 37 17.4
2009-03-26 12:59:24 51°22.573 3°11.774 256.5 1.1 44 17.3
2009-03-26 13:00:24 51°22.587 3°11.795 257.1 1.3 51 17
2009-03-26 13:01:24 51°22.6 3°11.816 255.9 0.9 47 17
2009-03-26 13:02:24 51°22.61 3°11.836 254.4 0.9 60 17.1
2009-03-26 13:03:24 51°22.619 3°11.852 256.4 0.8 46 16.9
2009-03-26 13:04:24 51°22.628 3°11.863 255.6 0.6 36 16.8
2009-03-26 13:05:24 51°22.637 3°11.877 257.3 0.8 23 16.8
2009-03-26 13:06:24 51°22.649 3°11.89 258.2 0.9 30 16.9
2009-03-26 13:07:24 51°22.658 3°11.906 255.5 1 50 16.6
2009-03-26 13:08:24 51°22.669 3°11.922 256.9 1 46 16.6
2009-03-26 13:09:24 51°22.68 3°11.938 257 0.8 42 16.6
2009-03-26 13:10:24 51°22.689 3°11.943 259.2 1.3 300 16.5
2009-03-26 13:11:24 51°22.753 3°11.902 327.3 6.7 344 16.3
2009-03-26 13:12:24 51°22.88 3°11.805 316.9 9.2 330 15.8
2009-03-26 13:13:25 51°23.025 3°11.671 319.3 10.4 330 15.1
2009-03-26 13:14:24 51°23.177 3°11.533 317.9 10.9 327 14.9
2009-03-26 13:15:24 51°23.336 3°11.379 319.3 11.2 330 15.1
2009-03-26 13:16:24 51°23.492 3°11.229 318.3 10.9 327 14.6
2009-03-26 13:17:25 51°23.653 3°11.079 321.9 10.5 333 -999
2009-03-26 13:18:26 51°23.808 3°10.93 318.4 10.6 327 17.1
2009-03-26 13:19:24 51°23.962 3°10.782 318.7 11.2 327 18.5
2009-03-26 13:20:24 51°24.123 3°10.625 320.5 11.4 332 21.9
2009-03-26 13:21:24 51°24.286 3°10.469 319.6 11.3 329 21.2
2009-03-26 13:22:24 51°24.45 3°10.313 320.2 11.5 330 16.4
2009-03-26 13:23:25 51°24.594 3°10.13 303.9 10.3 311 13.2
2009-03-26 13:24:25 51°24.689 3°9.901 292.2 10.2 300 12.5
2009-03-26 13:25:24 51°24.779 3°9.68 292.7 10 303 11.2
2009-03-26 13:26:24 51°24.87 3°9.454 293.7 10.4 304 11.3
2009-03-26 13:27:24 51°24.965 3°9.226 295.5 10.5 305 10.2
2009-03-26 13:28:24 51°25.063 3°8.999 296 10.5 306 9.6
2009-03-26 13:29:24 51°25.158 3°8.78 289.8 9.7 303 9.3
2009-03-26 13:30:24 51°25.239 3°8.554 293.1 9.6 306 8.2
2009-03-26 13:31:24 51°25.344 3°8.344 303.5 10.8 313 10.5
2009-03-26 13:32:24 51°25.484 3°8.158 311.1 11.1 323 10.6
2009-03-26 13:33:24 51°25.627 3°7.968 310.2 11.1 319 11.3
2009-03-26 13:34:24 51°25.769 3°7.781 310.1 11.1 320 12
2009-03-26 13:35:27 51°25.917 3°7.587 309.5 11.2 323 11.9
2009-03-26 13:36:28 51°26.056 3°7.412 308.2 10.2 322 10.6
2009-03-26 13:37:28 51°26.19 3°7.24 309.6 10.6 319 12
2009-03-26 13:38:27 51°26.322 3°7.057 306.4 10.9 321 13
2009-03-26 13:39:26 51°26.456 3°6.866 308.8 11.3 319 12.5
2009-03-26 13:40:25 51°26.591 3°6.67 308 11.3 319 13.9
2009-03-26 13:41:27 51°26.736 3°6.472 308 10.3 319 -999
2009-03-26 13:42:27 51°26.873 3°6.278 309.5 11.2 318 14.5
2009-03-26 13:43:27 51°27.01 3°6.081 309 11.3 316 14.8
2009-03-26 13:44:28 51°27.15 3°5.882 310.5 11 318 15
2009-03-26 13:45:27 51°27.287 3°5.684 308.4 11.2 320 15.4
2009-03-26 13:46:28 51°27.424 3°5.493 308.9 10.7 325 -999
2009-03-26 13:47:28 51°27.549 3°5.304 303.1 10.3 311 16.4
2009-03-26 13:48:27 51°27.66 3°5.088 301.5 11 305 16.1
2009-03-26 13:49:27 51°27.772 3°4.855 299.1 10.6 306 15.7
2009-03-26 13:50:27 51°27.886 3°4.645 301.8 10.7 312 17.4
2009-03-26 13:51:27 51°28.003 3°4.418 300.6 11.3 308 18.9
2009-03-26 13:52:28 51°28.105 3°4.189 289.3 9.5 298 19.9
2009-03-26 13:53:26 51°28.179 3°3.958 286.8 9.6 300 -999
2009-03-26 13:54:28 51°28.257 3°3.734 287.4 7.2 304 -999
2009-03-26 13:55:26 51°28.313 3°3.642 287.5 3.5 335 24.1
2009-03-26 13:56:24 51°28.352 3°3.595 263.9 3.2 288 24.6
2009-03-26 13:57:24 51°28.324 3°3.526 222.2 5.1 215 24.4
2009-03-26 13:58:24 51°28.249 3°3.452 225.4 4 221 24.1
2009-03-26 13:59:25 51°28.201 3°3.373 231.2 5.6 229 23.7
2009-03-26 14:00:24 51°28.12 3°3.223 230.3 8.7 229 24.3
2009-03-26 14:01:24 51°28.024 3°3.053 230.3 8.4 229 23.4
2009-03-26 14:02:26 51°27.934 3°2.894 229.6 7.7 228 24.1
2009-03-26 14:03:27 51°27.848 3°2.745 231.5 7.7 226 23.6
2009-03-26 14:04:26 51°27.758 3°2.58 230.6 8.5 230 23.2
2009-03-26 14:05:24 51°27.654 3°2.433 220.7 8.9 214 22.6
2009-03-26 14:06:25 51°27.529 3°2.322 209.9 8.8 200 21.6
2009-03-26 14:07:24 51°27.392 3°2.237 207.8 9 199 17.3
2009-03-26 14:08:24 51°27.255 3°2.156 207.2 8.9 201 16.2
2009-03-26 14:09:25 51°27.117 3°2.069 208.4 8 199 -999
2009-03-26 14:10:26 51°26.989 3°1.985 209.1 8.7 202 15.5
2009-03-26 14:11:28 51°26.853 3°1.926 202.5 8.4 196 14.5
2009-03-26 14:12:26 51°26.715 3°1.867 201.1 9.1 194 14.5
2009-03-26 14:13:28 51°26.574 3°1.808 202.6 8.4 191 13.9
2009-03-26 14:14:28 51°26.44 3°1.734 208.8 8.3 206 13.6
2009-03-26 14:15:27 51°26.314 3°1.641 210.6 7.8 198 -999
2009-03-26 14:16:27 51°26.186 3°1.546 207.8 8.9 208 14
2009-03-26 14:17:27 51°26.056 3°1.452 208.7 8.9 203 14
2009-03-26 14:18:28 51°25.935 3°1.369 209.1 8.6 206 14.7
2009-03-26 14:19:28 51°25.81 3°1.278 210.4 8.2 205 13.4
2009-03-26 14:20:28 51°25.682 3°1.183 207.9 7.7 204 14.4
2009-03-26 14:21:28 51°25.558 3°1.089 208.5 8.1 208 -999
2009-03-26 14:22:28 51°25.429 3°0.995 209.8 8.4 206 16
2009-03-26 14:23:28 51°25.312 3°0.91 208.4 8.8 208 16.4
2009-03-26 14:24:25 51°25.178 3°0.815 205.7 9.4 201 16.5
2009-03-26 14:25:24 51°25.036 3°0.722 204.9 9.4 202 16.6
2009-03-26 14:26:26 51°24.886 3°0.636 204.2 9.5 197 18
2009-03-26 14:27:24 51°24.747 3°0.548 205 9.5 203 20.7
2009-03-26 14:28:27 51°24.601 3°0.467 204.6 8.6 202 -999
2009-03-26 14:29:28 51°24.463 3°0.383 205.3 9.1 201 17.9
2009-03-26 14:30:28 51°24.319 3°0.299 205 9.2 199 17.4
2009-03-26 14:31:27 51°24.181 3°0.215 204.7 9.1 202 18
2009-03-26 14:32:27 51°24.044 3°0.133 206.5 9.2 201 18.4
2009-03-26 14:33:26 51°23.902 3°0.046 205.9 9.6 201 19.1
2009-03-26 14:34:24 51°23.758 2°59.958 204.7 9.8 201 20.3
2009-03-26 14:35:25 51°23.607 2°59.871 205.7 9.6 200 20.2
2009-03-26 14:36:24 51°23.464 2°59.787 204.3 9.2 196 19.7
2009-03-26 14:37:24 51°23.322 2°59.707 205.2 9.2 202 19.9
2009-03-26 14:38:25 51°23.179 2°59.601 209.1 9.4 206 19.1
2009-03-26 14:39:25 51°23.04 2°59.495 209.4 9.5 206 18.4
2009-03-26 14:40:25 51°22.909 2°59.395 209.1 8.5 208 -999
2009-03-26 14:41:25 51°22.775 2°59.289 208.7 9 204 17.2
2009-03-26 14:42:25 51°22.638 2°59.185 208.5 8.9 206 17.2
2009-03-26 14:43:25 51°22.499 2°59.072 210.4 9.2 210 16.6
2009-03-26 14:44:26 51°22.367 2°58.95 215.2 8.7 213 15.7
2009-03-26 14:45:26 51°22.246 2°58.824 217.1 9 216 16.7
2009-03-26 14:46:25 51°22.132 2°58.67 222.5 9 222 15.3
2009-03-26 14:47:26 51°22.026 2°58.495 228 8.9 229 15.2
2009-03-26 14:48:25 51°21.933 2°58.312 229.7 9.3 233 15.5
2009-03-26 14:49:25 51°21.84 2°58.117 230.8 9.2 233 15.5
2009-03-26 14:50:25 51°21.744 2°57.922 230.8 8.9 232 15.4
2009-03-26 14:51:26 51°21.646 2°57.736 229.3 9.2 230 15.2
2009-03-26 14:52:25 51°21.555 2°57.551 229.5 9.2 231 15.6
2009-03-26 14:53:27 51°21.447 2°57.372 218.9 8.7 219 -999
2009-03-26 14:54:27 51°21.316 2°57.268 206.6 9 205 15.4
2009-03-26 14:55:25 51°21.183 2°57.168 208.1 9.6 205 14.5
2009-03-26 14:56:27 51°21.033 2°57.049 207.3 9.3 206 -999
2009-03-26 14:57:25 51°20.898 2°56.933 211.3 9.5 213 14.3
2009-03-26 14:58:25 51°20.76 2°56.805 212 9.7 211 14.1
2009-03-26 14:59:25 51°20.621 2°56.681 212 9.7 208 14.3
2009-03-26 15:00:25 51°20.481 2°56.559 211.1 9.4 207 13.6
2009-03-26 15:01:25 51°20.338 2°56.434 211.1 9.8 202 -999
2009-03-26 15:02:25 51°20.213 2°56.276 222.2 9.4 222 -999
2009-03-26 15:03:26 51°20.092 2°56.115 220.3 9 223 13.8
2009-03-26 15:04:25 51°19.97 2°55.954 220.3 10.1 221 13.5
2009-03-26 15:05:27 51°19.844 2°55.793 218.6 9 220 13.5
2009-03-26 15:06:26 51°19.722 2°55.638 218.6 9.1 217 -999
2009-03-26 15:07:25 51°19.613 2°55.464 227.7 9.7 229 13.3
2009-03-26 15:08:26 51°19.526 2°55.246 238.4 9.6 243 13.3
2009-03-26 15:09:25 51°19.452 2°55.016 239.2 10.1 243 13.3
2009-03-26 15:10:27 51°19.379 2°54.802 238.2 8.7 241 -999
2009-03-26 15:11:28 51°19.305 2°54.589 237.7 9.4 240 13.5
2009-03-26 15:12:28 51°19.234 2°54.395 237.7 8.4 242 -999
2009-03-26 15:13:28 51°19.161 2°54.191 236.9 7.9 234 -999
2009-03-26 15:14:28 51°19.092 2°54.001 238 9.3 240 13.2
2009-03-26 15:15:27 51°19.016 2°53.794 236 9.2 237 13.3
2009-03-26 15:16:28 51°18.925 2°53.591 231.4 8.7 229 12.5
2009-03-26 15:17:28 51°18.828 2°53.41 227.3 9.5 228 12.7
2009-03-26 15:18:26 51°18.722 2°53.241 223.8 8.6 224 12.3
2009-03-26 15:19:27 51°18.612 2°53.079 220 9.5 219 12.8
2009-03-26 15:20:28 51°18.489 2°52.935 216.7 9.1 219 12.8
2009-03-26 15:21:28 51°18.368 2°52.78 219.1 9.5 218 12.6
2009-03-26 15:22:27 51°18.239 2°52.645 211.3 9 208 -999
2009-03-26 15:23:27 51°18.105 2°52.535 208.4 9.7 201 12
2009-03-26 15:24:25 51°17.963 2°52.433 203.7 9.5 202 11.1
2009-03-26 15:25:25 51°17.819 2°52.33 206.9 9.8 204 11.7
2009-03-26 15:26:24 51°17.668 2°52.28 184.7 10 177 11.5
2009-03-26 15:27:25 51°17.494 2°52.308 175.3 10.5 171 11.8
2009-03-26 15:28:25 51°17.322 2°52.349 174.5 10.6 168 11.2
2009-03-26 15:29:25 51°17.15 2°52.39 174.8 10.3 173 10.9
2009-03-26 15:30:25 51°16.981 2°52.468 163.8 10.9 156 10.5
2009-03-26 15:31:25 51°16.814 2°52.564 166 10.5 160 10.7
2009-03-26 15:32:25 51°16.65 2°52.691 155.6 11.6 145 11.7
2009-03-26 15:33:25 51°16.486 2°52.824 157 11.3 154 12.8
2009-03-26 15:34:25 51°16.322 2°52.955 162.3 11.1 150 12.8
2009-03-26 15:35:25 51°16.153 2°53.056 163.3 10.8 161 13
2009-03-26 15:36:25 51°15.983 2°53.161 160.2 11.2 157 12.4
2009-03-26 15:37:25 51°15.811 2°53.263 165.9 11 160 11.7
2009-03-26 15:38:24 51°15.639 2°53.363 165.9 10.9 158 11.4
2009-03-26 15:39:25 51°15.464 2°53.469 162.7 11.2 152 11.6
2009-03-26 15:40:25 51°15.291 2°53.568 163.4 11 167 10.8
2009-03-26 15:41:25 51°15.125 2°53.697 157.5 11 150 10.4
2009-03-26 15:42:25 51°14.969 2°53.856 148.9 11.2 140 10.3
2009-03-26 15:43:25 51°14.832 2°54.059 134.6 11.4 122 10.2
2009-03-26 15:44:25 51°14.718 2°54.31 135.8 11.1 138 11.1
2009-03-26 15:45:25 51°14.601 2°54.554 128.5 11.7 122 10.9
2009-03-26 15:46:25 51°14.492 2°54.807 130.6 10.8 124 11.3
2009-03-26 15:47:25 51°14.384 2°55.034 133.9 10.4 131 10.9
2009-03-26 15:48:25 51°14.283 2°55.23 133.5 8.3 132 11.4
2009-03-26 15:49:29 51°14.172 2°55.368 150.8 8.2 149 -999
2009-03-26 15:50:29 51°14.046 2°55.47 155.1 8.6 153 -999
2009-03-26 15:51:29 51°13.917 2°55.567 155.5 8.2 155 -999
2009-03-26 15:52:29 51°13.804 2°55.656 149.6 7.3 151 -999
2009-03-26 15:53:29 51°13.722 2°55.774 130.5 5.7 130 -999
2009-03-26 15:54:29 51°13.675 2°55.88 111.7 4.7 114 -999
2009-03-26 15:55:29 51°13.664 2°55.954 119.6 1 106 -999